createdAt,value
2022-09-24T00:00:39.911Z,0
2022-09-24T00:01:42.015Z,0
2022-09-24T00:02:43.878Z,0
2022-09-24T00:03:44.734Z,0
2022-09-24T00:04:45.862Z,0
2022-09-24T00:05:46.920Z,0
2022-09-24T00:06:48.803Z,0
2022-09-24T00:07:49.841Z,0
2022-09-24T00:08:50.795Z,0
2022-09-24T00:09:51.813Z,0
2022-09-24T00:10:52.862Z,0
2022-09-24T00:11:54.940Z,0
2022-09-24T00:12:56.936Z,0
2022-09-24T00:13:58.873Z,0
2022-09-24T00:15:00.862Z,0
2022-09-24T00:16:02.920Z,0
2022-09-24T00:17:04.754Z,0
2022-09-24T00:18:05.930Z,0
2022-09-24T00:19:07.962Z,0
2022-09-24T00:20:09.893Z,0
2022-09-24T00:21:11.997Z,0
2022-09-24T00:22:13.853Z,0
2022-09-24T00:23:14.758Z,0
2022-09-24T00:24:15.895Z,0
2022-09-24T00:25:17.776Z,0
2022-09-24T00:26:18.828Z,0
2022-09-24T00:27:25.934Z,0
2022-09-24T00:28:27.876Z,0
2022-09-24T00:29:29.795Z,0
2022-09-24T00:30:30.835Z,0
2022-09-24T00:31:31.894Z,0
2022-09-24T00:32:32.907Z,0
2022-09-24T00:33:34.854Z,0
2022-09-24T00:34:35.737Z,0
2022-09-24T00:35:36.828Z,0
2022-09-24T00:36:37.825Z,0
2022-09-24T00:37:38.786Z,0
2022-09-24T00:38:39.860Z,0
2022-09-24T00:39:41.914Z,0
2022-09-24T00:40:43.852Z,0
2022-09-24T00:41:44.850Z,0
2022-09-24T00:42:45.836Z,0
2022-09-24T00:43:46.793Z,0
2022-09-24T00:44:47.834Z,0
2022-09-24T00:45:48.873Z,0
2022-09-24T00:46:49.842Z,0
2022-09-24T00:47:50.793Z,0
2022-09-24T00:48:51.774Z,0
2022-09-24T00:49:52.875Z,0
2022-09-24T00:50:53.846Z,0
2022-09-24T00:51:54.797Z,0
2022-09-24T00:52:55.753Z,0
2022-09-24T00:53:56.754Z,0
2022-09-24T00:54:57.815Z,0
2022-09-24T00:55:58.754Z,0
2022-09-24T00:56:59.754Z,0
2022-09-24T00:58:00.814Z,0
2022-09-24T00:59:01.787Z,0
2022-09-24T01:00:02.882Z,0
2022-09-24T01:04:04.109Z,0
2022-09-24T01:05:05.756Z,0
2022-09-24T01:06:06.837Z,0
2022-09-24T01:07:07.990Z,0
2022-09-24T01:08:08.767Z,0
2022-09-24T01:09:09.685Z,0
2022-09-24T01:10:10.777Z,0
2022-09-24T01:11:11.785Z,0
2022-09-24T01:12:12.777Z,0
2022-09-24T01:13:13.817Z,0
2022-09-24T01:14:14.810Z,0
2022-09-24T01:15:15.844Z,0
2022-09-24T01:16:16.892Z,0
2022-09-24T01:17:17.734Z,0
2022-09-24T01:18:18.816Z,0
2022-09-24T01:19:19.776Z,0
2022-09-24T01:20:20.759Z,0
2022-09-24T01:21:21.800Z,0
2022-09-24T01:22:22.820Z,0
2022-09-24T01:23:23.876Z,0
2022-09-24T01:24:24.896Z,0
2022-09-24T01:25:26.862Z,0
2022-09-24T01:26:28.728Z,0
2022-09-24T01:27:29.802Z,0
2022-09-24T01:28:30.907Z,0
2022-09-24T01:29:31.857Z,0
2022-09-24T01:30:32.858Z,0
2022-09-24T01:31:33.944Z,0
2022-09-24T01:32:34.796Z,0
2022-09-24T01:33:35.897Z,0
2022-09-24T01:34:36.842Z,0
2022-09-24T01:35:37.739Z,0
2022-09-24T01:36:38.868Z,0
2022-09-24T01:37:40.959Z,0
2022-09-24T01:38:42.777Z,0
2022-09-24T01:39:43.838Z,0
2022-09-24T01:40:44.910Z,0
2022-09-24T01:41:45.857Z,0
2022-09-24T01:42:46.798Z,0
2022-09-24T01:43:47.837Z,0
2022-09-24T01:44:49.997Z,0
2022-09-24T01:45:51.806Z,0
2022-09-24T01:46:52.870Z,0
2022-09-24T01:47:53.857Z,0
2022-09-24T01:48:54.798Z,0
2022-09-24T01:49:55.917Z,0
2022-09-24T01:50:57.797Z,0
2022-09-24T01:51:58.797Z,0
2022-09-24T01:52:59.820Z,0
2022-09-24T01:54:00.808Z,0
2022-09-24T01:55:01.773Z,0
2022-09-24T01:56:03.203Z,0
2022-09-24T01:57:04.797Z,0
2022-09-24T01:58:05.798Z,0
2022-09-24T01:59:06.816Z,0
2022-09-24T02:00:07.897Z,0
2022-09-24T02:01:08.920Z,0
2022-09-24T02:02:10.117Z,0
2022-09-24T02:03:11.837Z,0
2022-09-24T02:04:12.859Z,0
2022-09-24T02:05:13.837Z,0
2022-09-24T02:06:14.760Z,0
2022-09-24T02:07:15.993Z,0
2022-09-24T02:08:17.904Z,0
2022-09-24T02:09:18.877Z,0
2022-09-24T02:10:19.819Z,0
2022-09-24T02:11:20.837Z,0
2022-09-24T02:12:21.954Z,0
2022-09-24T02:13:23.817Z,0
2022-09-24T02:14:24.866Z,0
2022-09-24T02:15:28.912Z,0
2022-09-24T02:16:26.779Z,0
2022-09-24T02:17:27.848Z,0
2022-09-24T02:18:28.785Z,0
2022-09-24T02:19:29.767Z,0
2022-09-24T02:20:30.756Z,0
2022-09-24T02:21:31.779Z,0
2022-09-24T02:22:32.761Z,0
2022-09-24T02:23:33.861Z,0
2022-09-24T02:24:34.847Z,0
2022-09-24T02:25:35.816Z,0
2022-09-24T02:26:36.798Z,0
2022-09-24T02:27:37.825Z,0
2022-09-24T02:28:38.809Z,0
2022-09-24T02:29:39.776Z,0
2022-09-24T02:30:40.752Z,0
2022-09-24T02:31:41.825Z,0
2022-09-24T02:32:42.776Z,0
2022-09-24T02:33:43.760Z,0
2022-09-24T02:34:44.768Z,0
2022-09-24T02:35:45.806Z,0
2022-09-24T02:36:46.794Z,0
2022-09-24T02:37:47.834Z,0
2022-09-24T02:38:48.785Z,0
2022-09-24T02:39:49.791Z,0
2022-09-24T02:40:50.989Z,0
2022-09-24T02:41:51.797Z,0
2022-09-24T02:42:52.866Z,0
2022-09-24T02:43:54.787Z,0
2022-09-24T02:44:55.901Z,0
2022-09-24T02:45:57.817Z,0
2022-09-24T02:46:58.983Z,0
2022-09-24T02:47:59.777Z,0
2022-09-24T02:49:00.818Z,0
2022-09-24T02:50:01.838Z,0
2022-09-24T02:51:02.816Z,0
2022-09-24T02:52:03.797Z,0
2022-09-24T02:53:04.778Z,0
2022-09-24T02:54:05.843Z,0
2022-09-24T02:55:06.826Z,0
2022-09-24T02:56:07.852Z,0
2022-09-24T02:57:08.876Z,0
2022-09-24T02:58:09.801Z,0
2022-09-24T02:59:10.928Z,0
2022-09-24T03:00:12.885Z,0
2022-09-24T03:01:13.835Z,0
2022-09-24T03:02:14.980Z,0
2022-09-24T03:03:15.974Z,0
2022-09-24T03:04:16.818Z,0
2022-09-24T03:05:17.876Z,0
2022-09-24T03:06:18.937Z,0
2022-09-24T03:07:19.838Z,0
2022-09-24T03:08:20.876Z,0
2022-09-24T03:09:21.987Z,0
2022-09-24T03:10:23.020Z,0
2022-09-24T03:11:24.897Z,0
2022-09-24T03:12:25.811Z,0
2022-09-24T03:13:26.898Z,0
2022-09-24T03:14:27.798Z,0
2022-09-24T03:15:28.837Z,0
2022-09-24T03:16:29.943Z,0
2022-09-24T03:17:30.876Z,0
2022-09-24T03:18:31.817Z,0
2022-09-24T03:19:32.839Z,0
2022-09-24T03:20:33.917Z,0
2022-09-24T03:21:34.897Z,0
2022-09-24T03:22:35.858Z,0
2022-09-24T03:23:36.936Z,0
2022-09-24T03:24:37.888Z,0
2022-09-24T03:25:38.861Z,0
2022-09-24T03:26:39.821Z,0
2022-09-24T03:27:41.037Z,0
2022-09-24T03:28:42.877Z,0
2022-09-24T03:29:43.918Z,0
2022-09-24T03:30:44.800Z,0
2022-09-24T03:31:45.982Z,0
2022-09-24T03:32:46.816Z,0
2022-09-24T03:33:47.861Z,0
2022-09-24T03:34:48.848Z,0
2022-09-24T03:35:49.864Z,0
2022-09-24T03:36:50.861Z,0
2022-09-24T03:37:51.864Z,0
2022-09-24T03:38:52.877Z,0
2022-09-24T03:39:53.906Z,0
2022-09-24T03:40:54.911Z,0
2022-09-24T03:41:55.758Z,0
2022-09-24T03:42:56.838Z,0
2022-09-24T03:43:57.897Z,0
2022-09-24T03:44:58.878Z,0
2022-09-24T03:46:00.089Z,0
2022-09-24T03:47:00.917Z,0
2022-09-24T03:48:01.877Z,0
2022-09-24T03:49:02.848Z,0
2022-09-24T03:50:03.899Z,0
2022-09-24T03:51:04.857Z,0
2022-09-24T03:52:05.936Z,0
2022-09-24T03:53:06.838Z,0
2022-09-24T03:54:07.877Z,0
2022-09-24T03:55:08.860Z,0
2022-09-24T03:56:09.844Z,0
2022-09-24T03:57:11.238Z,0
2022-09-24T03:58:12.917Z,0
2022-09-24T03:59:13.877Z,0
2022-09-24T04:00:14.917Z,0
2022-09-24T04:01:15.898Z,0
2022-09-24T04:02:16.978Z,0
2022-09-24T04:03:17.957Z,0
2022-09-24T04:04:18.844Z,0
2022-09-24T04:05:19.915Z,0
2022-09-24T04:06:25.686Z,0
2022-09-24T04:07:21.957Z,0
2022-09-24T04:08:23.199Z,0
2022-09-24T04:09:24.814Z,0
2022-09-24T04:10:25.999Z,0
2022-09-24T04:11:26.818Z,0
2022-09-24T04:12:27.895Z,0
2022-09-24T04:13:28.916Z,0
2022-09-24T04:14:29.896Z,0
2022-09-24T04:15:30.897Z,0
2022-09-24T04:16:31.920Z,0
2022-09-24T04:17:32.877Z,0
2022-09-24T04:18:38.429Z,0
2022-09-24T04:19:34.856Z,0
2022-09-24T04:20:35.957Z,0
2022-09-24T04:21:36.898Z,0
2022-09-24T04:22:37.876Z,0
2022-09-24T04:23:38.857Z,0
2022-09-24T04:24:39.877Z,0
2022-09-24T04:25:41.042Z,0
2022-09-24T04:26:42.997Z,0
2022-09-24T04:27:43.957Z,0
2022-09-24T04:28:44.857Z,0
2022-09-24T04:29:45.862Z,0
2022-09-24T04:30:46.898Z,0
2022-09-24T04:31:48.017Z,0
2022-09-24T04:32:48.937Z,0
2022-09-24T04:33:49.878Z,0
2022-09-24T04:34:50.918Z,0
2022-09-24T04:35:51.897Z,0
2022-09-24T04:36:52.878Z,0
2022-09-24T04:37:53.918Z,0
2022-09-24T04:38:54.917Z,0
2022-09-24T04:39:56.017Z,0
2022-09-24T04:40:58.151Z,0
2022-09-24T04:41:58.880Z,0
2022-09-24T04:42:59.999Z,0
2022-09-24T04:44:01.016Z,0
2022-09-24T04:45:01.957Z,0
2022-09-24T04:46:02.977Z,0
2022-09-24T04:47:03.841Z,0
2022-09-24T04:48:04.913Z,0
2022-09-24T04:49:05.967Z,0
2022-09-24T04:50:06.879Z,0
2022-09-24T04:51:07.938Z,0
2022-09-24T04:52:08.917Z,0
2022-09-24T04:53:09.925Z,0
2022-09-24T04:54:10.918Z,0
2022-09-24T04:55:11.879Z,0
2022-09-24T04:56:12.943Z,0
2022-09-24T04:57:13.878Z,0
2022-09-24T04:58:14.898Z,0
2022-09-24T04:59:15.957Z,0
2022-09-24T05:00:16.938Z,0
2022-09-24T05:01:17.976Z,0
2022-09-24T05:02:19.002Z,0
2022-09-24T05:03:19.916Z,0
2022-09-24T05:04:20.864Z,0
2022-09-24T05:05:21.857Z,0
2022-09-24T05:06:23.217Z,0
2022-09-24T05:07:24.840Z,0
2022-09-24T05:08:25.997Z,0
2022-09-24T05:09:27.956Z,0
2022-09-24T05:10:28.837Z,0
2022-09-24T05:11:30.004Z,0
2022-09-24T05:12:31.070Z,0
2022-09-24T05:13:31.858Z,0
2022-09-24T05:14:32.877Z,0
2022-09-24T05:15:33.897Z,0
2022-09-24T05:16:35.000Z,0
2022-09-24T05:17:35.937Z,0
2022-09-24T05:18:36.907Z,0
2022-09-24T05:19:37.898Z,0
2022-09-24T05:20:38.957Z,0
2022-09-24T05:21:39.879Z,0
2022-09-24T05:22:41.058Z,0
2022-09-24T05:23:42.937Z,0
2022-09-24T05:24:43.976Z,0
2022-09-24T05:25:44.891Z,0
2022-09-24T05:26:45.902Z,0
2022-09-24T05:27:46.938Z,0
2022-09-24T05:28:47.897Z,0
2022-09-24T05:29:49.000Z,0
2022-09-24T05:30:50.124Z,0
2022-09-24T05:31:52.068Z,0
2022-09-24T05:32:53.046Z,0
2022-09-24T05:33:53.913Z,0
2022-09-24T05:34:54.834Z,0
2022-09-24T05:35:56.219Z,0
2022-09-24T05:36:58.057Z,0
2022-09-24T05:37:59.956Z,0
2022-09-24T05:39:00.939Z,0
2022-09-24T05:40:02.127Z,0
2022-09-24T05:41:04.061Z,0
2022-09-24T05:42:05.925Z,0
2022-09-24T05:43:06.938Z,0
2022-09-24T05:44:07.964Z,0
2022-09-24T05:45:08.958Z,0
2022-09-24T05:46:10.024Z,0
2022-09-24T05:47:10.977Z,0
2022-09-24T05:48:12.060Z,0
2022-09-24T05:49:14.018Z,0
2022-09-24T05:50:14.898Z,0
2022-09-24T05:51:15.978Z,0
2022-09-24T05:52:16.900Z,0
2022-09-24T05:53:17.937Z,0
2022-09-24T05:54:18.969Z,0
2022-09-24T05:55:19.919Z,0
2022-09-24T05:56:20.978Z,0
2022-09-24T05:57:21.902Z,0
2022-09-24T05:58:23.264Z,0
2022-09-24T05:59:24.918Z,0
2022-09-24T06:00:25.999Z,0
2022-09-24T06:01:28.086Z,0
2022-09-24T06:02:28.909Z,0
2022-09-24T06:03:30.482Z,0
2022-09-24T06:04:31.937Z,0
2022-09-24T06:05:32.941Z,0
2022-09-24T06:06:33.956Z,0
2022-09-24T06:07:34.938Z,0
2022-09-24T06:08:36.039Z,0
2022-09-24T06:09:36.979Z,0
2022-09-24T06:10:37.941Z,0
2022-09-24T06:11:40.566Z,0
2022-09-24T06:12:39.921Z,0
2022-09-24T06:13:40.942Z,0
2022-09-24T06:14:41.999Z,0
2022-09-24T06:15:44.099Z,0
2022-09-24T06:16:45.948Z,0
2022-09-24T06:17:46.963Z,0
2022-09-24T06:18:47.989Z,0
2022-09-24T06:19:48.957Z,0
2022-09-24T06:20:49.898Z,0
2022-09-24T06:21:50.939Z,0
2022-09-24T06:22:51.943Z,0
2022-09-24T06:23:53.018Z,0
2022-09-24T06:24:53.980Z,0
2022-09-24T06:25:54.916Z,0
2022-09-24T06:26:55.998Z,0
2022-09-24T06:27:57.080Z,0
2022-09-24T06:29:03.876Z,0
2022-09-24T06:29:59.926Z,0
2022-09-24T06:31:01.129Z,0
2022-09-24T06:32:03.117Z,0
2022-09-24T06:33:04.922Z,0
2022-09-24T06:34:06.039Z,0
2022-09-24T06:35:06.895Z,0
2022-09-24T06:36:07.978Z,0
2022-09-24T06:37:08.918Z,0
2022-09-24T06:38:09.985Z,0
2022-09-24T06:39:11.136Z,0
2022-09-24T06:40:13.147Z,0
2022-09-24T06:41:14.960Z,0
2022-09-24T06:42:15.959Z,0
2022-09-24T06:43:17.001Z,0
2022-09-24T06:44:17.991Z,0
2022-09-24T06:45:20.024Z,0
2022-09-24T06:46:21.022Z,0
2022-09-24T06:47:22.037Z,0
2022-09-24T06:48:23.940Z,0
2022-09-24T06:49:25.789Z,0
2022-09-24T06:50:26.101Z,0
2022-09-24T06:51:28.079Z,0
2022-09-24T06:52:30.008Z,0
2022-09-24T06:53:32.062Z,0
2022-09-24T06:54:34.077Z,0
2022-09-24T06:55:36.003Z,0
2022-09-24T06:56:37.131Z,0
2022-09-24T06:57:39.237Z,0
2022-09-24T06:58:41.102Z,0
2022-09-24T06:59:42.971Z,0
2022-09-24T07:00:44.010Z,0
2022-09-24T07:01:44.973Z,0.14
2022-09-24T07:02:45.999Z,0
2022-09-24T07:03:47.037Z,0.11
2022-09-24T07:04:47.958Z,0
2022-09-24T07:05:48.897Z,0.15
2022-09-24T07:06:50.030Z,0
2022-09-24T07:07:52.046Z,0
2022-09-24T07:08:53.920Z,0
2022-09-24T07:09:54.903Z,0
2022-09-24T07:10:55.920Z,0
2022-09-24T07:11:57.157Z,0
2022-09-24T07:12:58.891Z,0
2022-09-24T07:13:59.990Z,0.21
2022-09-24T07:15:01.001Z,0.09
2022-09-24T07:16:02.157Z,0.13
2022-09-24T07:17:02.976Z,0.16
2022-09-24T07:18:03.928Z,0.23
2022-09-24T07:19:05.015Z,0.07
2022-09-24T07:20:05.959Z,0.29
2022-09-24T07:21:06.957Z,0.1
2022-09-24T07:22:08.026Z,0
2022-09-24T07:23:08.918Z,0.37
2022-09-24T07:24:09.903Z,0.28
2022-09-24T07:25:10.917Z,0
2022-09-24T07:26:12.023Z,0.2
2022-09-24T07:27:13.096Z,0.25
2022-09-24T07:28:14.864Z,0.09
2022-09-24T07:29:15.961Z,0.09
2022-09-24T07:30:16.959Z,0.15
2022-09-24T07:31:18.166Z,0.11
2022-09-24T07:32:19.999Z,0
2022-09-24T07:33:20.966Z,0.13
2022-09-24T07:34:21.957Z,0.13
2022-09-24T07:35:23.334Z,0
2022-09-24T07:36:25.015Z,0
2022-09-24T07:37:25.906Z,0
2022-09-24T07:38:27.043Z,0
2022-09-24T07:39:27.938Z,0
2022-09-24T07:40:29.022Z,0.24
2022-09-24T07:41:30.033Z,0.31
2022-09-24T07:42:31.948Z,0
2022-09-24T07:43:32.866Z,0.06
2022-09-24T07:44:34.042Z,0.06
2022-09-24T07:45:34.900Z,0.12
2022-09-24T07:46:36.048Z,0
2022-09-24T07:47:36.915Z,0
2022-09-24T07:48:38.039Z,0
2022-09-24T07:49:39.017Z,0
2022-09-24T07:50:40.073Z,0.26
2022-09-24T07:51:42.079Z,0.26
2022-09-24T07:52:43.963Z,0.25
2022-09-24T07:53:44.980Z,0.14
2022-09-24T07:54:45.897Z,0.06
2022-09-24T07:55:46.998Z,0.26
2022-09-24T07:56:48.057Z,0.23
2022-09-24T07:57:49.116Z,0.08
2022-09-24T07:58:50.920Z,0
2022-09-24T07:59:52.121Z,0
2022-09-24T08:00:52.938Z,0.28
2022-09-24T08:01:54.072Z,0.33
2022-09-24T08:02:55.062Z,0
2022-09-24T08:03:57.245Z,0.12
2022-09-24T08:04:59.218Z,0
2022-09-24T08:06:01.156Z,0.33
2022-09-24T08:07:03.056Z,0
2022-09-24T08:08:05.057Z,0
2022-09-24T08:09:07.081Z,0
2022-09-24T08:10:08.176Z,0.42
2022-09-24T08:11:10.077Z,0.09
2022-09-24T08:12:12.137Z,0
2022-09-24T08:13:14.077Z,0.12
2022-09-24T08:14:16.173Z,0.47
2022-09-24T08:15:18.142Z,0.45
2022-09-24T08:16:20.146Z,0.1
2022-09-24T08:17:21.122Z,0.4
2022-09-24T08:18:23.377Z,0.48
2022-09-24T08:19:25.059Z,0.28
2022-09-24T08:20:26.087Z,0.48
2022-09-24T08:21:28.038Z,0.3
2022-09-24T08:22:30.014Z,0.13
2022-09-24T08:23:31.158Z,0.43
2022-09-24T08:24:33.123Z,0.26
2022-09-24T08:25:35.161Z,0.34
2022-09-24T08:26:37.340Z,0.34
2022-09-24T08:27:39.179Z,0.39
2022-09-24T08:28:41.171Z,0.39
2022-09-24T08:29:43.205Z,0.15
2022-09-24T08:30:45.043Z,0.15
2022-09-24T08:31:46.169Z,0
2022-09-24T08:32:46.998Z,0.1
2022-09-24T08:33:48.029Z,0
2022-09-24T08:34:49.178Z,0
2022-09-24T08:35:51.157Z,0
2022-09-24T08:36:53.004Z,0
2022-09-24T08:37:54.076Z,0.23
2022-09-24T08:38:55.004Z,0
2022-09-24T08:39:56.102Z,0
2022-09-24T08:40:57.177Z,0
2022-09-24T08:41:59.120Z,0
2022-09-24T08:43:04.233Z,0.18
2022-09-24T08:44:03.009Z,0.14
2022-09-24T08:45:04.237Z,0.54
2022-09-24T08:46:06.317Z,0.34
2022-09-24T08:47:08.037Z,0.12
2022-09-24T08:48:09.176Z,0.14
2022-09-24T08:49:10.901Z,0
2022-09-24T08:50:11.957Z,0
2022-09-24T08:51:13.116Z,0.21
2022-09-24T08:52:15.069Z,0.63
2022-09-24T08:53:17.104Z,0.18
2022-09-24T08:54:19.122Z,0.6
2022-09-24T08:55:21.158Z,0.56
2022-09-24T08:56:23.585Z,0.07
2022-09-24T08:57:25.007Z,0
2022-09-24T08:58:26.079Z,0
2022-09-24T08:59:27.058Z,0.1
2022-09-24T09:00:28.044Z,0.12
2022-09-24T09:01:29.290Z,0.09
2022-09-24T09:02:31.253Z,0.21
2022-09-24T09:03:33.159Z,0.41
2022-09-24T09:04:34.976Z,0.23
2022-09-24T09:05:35.999Z,0
2022-09-24T09:06:37.085Z,0.1
2022-09-24T09:07:37.983Z,0
2022-09-24T09:09:41.137Z,0.35
2022-09-24T09:10:43.076Z,0
2022-09-24T09:11:44.018Z,0
2022-09-24T09:12:44.977Z,0.16
2022-09-24T09:13:46.017Z,1.06
2022-09-24T09:14:47.037Z,0.75
2022-09-24T09:15:48.120Z,0.27
2022-09-24T09:16:49.106Z,0.11
2022-09-24T09:17:49.985Z,0.27
2022-09-24T09:18:50.997Z,0.22
2022-09-24T09:19:53.799Z,0.24
2022-09-24T09:20:52.977Z,0.06
2022-09-24T09:21:53.997Z,0.09
2022-09-24T09:22:54.976Z,0.48
2022-09-24T09:23:55.996Z,0.15
2022-09-24T09:25:01.218Z,0.06
2022-09-24T09:25:59.157Z,0
2022-09-24T09:27:01.261Z,0.2
2022-09-24T09:28:03.019Z,0.44
2022-09-24T09:29:04.165Z,0.39
2022-09-24T09:30:07.156Z,0.24
2022-09-24T09:31:06.083Z,0.93
2022-09-24T09:32:07.160Z,0.77
2022-09-24T09:33:09.162Z,1.21
2022-09-24T09:34:11.167Z,0
2022-09-24T09:35:11.997Z,1.08
2022-09-24T09:36:13.197Z,0.41
2022-09-24T09:37:15.078Z,0.28
2022-09-24T09:38:15.989Z,0
2022-09-24T09:39:17.046Z,0
2022-09-24T09:40:18.179Z,0.63
2022-09-24T09:41:19.192Z,0.3
2022-09-24T09:42:21.217Z,0.25
2022-09-24T09:43:23.697Z,0.72
2022-09-24T09:44:24.976Z,0.33
2022-09-24T09:45:28.035Z,0.65
2022-09-24T09:46:27.074Z,0.59
2022-09-24T09:47:28.188Z,0.3
2022-09-24T09:48:30.077Z,0.66
2022-09-24T09:49:31.049Z,0.72
2022-09-24T09:50:32.056Z,0.41
2022-09-24T09:51:33.050Z,0.3
2022-09-24T09:52:33.998Z,0.28
2022-09-24T09:53:34.997Z,0
2022-09-24T09:54:36.037Z,0
2022-09-24T09:55:37.070Z,0
2022-09-24T09:56:38.036Z,0.63
2022-09-24T09:57:39.031Z,0.51
2022-09-24T09:58:40.124Z,0.18
2022-09-24T09:59:41.049Z,0.2
2022-09-24T10:00:42.018Z,0.12
2022-09-24T10:01:43.260Z,0.41
2022-09-24T10:02:45.274Z,0.29
2022-09-24T10:03:47.200Z,0
2022-09-24T10:04:52.043Z,0
2022-09-24T10:05:51.057Z,0
2022-09-24T10:06:52.142Z,0.67
2022-09-24T10:07:53.042Z,0.06
2022-09-24T10:08:54.025Z,0.69
2022-09-24T10:09:55.038Z,0.31
2022-09-24T10:10:56.090Z,0.24
2022-09-24T10:11:57.077Z,0.14
2022-09-24T10:12:58.180Z,0
2022-09-24T10:14:00.178Z,0
2022-09-24T10:15:02.262Z,0.05
2022-09-24T10:16:04.415Z,0.36
2022-09-24T10:17:06.143Z,0.53
2022-09-24T10:18:07.281Z,0.39
2022-09-24T10:19:09.048Z,0.34
2022-09-24T10:20:10.017Z,0.46
2022-09-24T10:21:11.057Z,0.44
2022-09-24T10:22:12.056Z,0.13
2022-09-24T10:23:13.074Z,0.21
2022-09-24T10:24:14.025Z,0.34
2022-09-24T10:25:15.139Z,0.31
2022-09-24T10:26:17.098Z,0.86
2022-09-24T10:27:18.093Z,0.71
2022-09-24T10:28:19.124Z,0.86
2022-09-24T10:29:20.217Z,0.89
2022-09-24T10:30:22.077Z,0.31
2022-09-24T10:31:23.111Z,0.15
2022-09-24T10:32:23.976Z,0
2022-09-24T10:33:25.101Z,0.05
2022-09-24T10:34:26.237Z,0.6
2022-09-24T10:35:28.097Z,0.68
2022-09-24T10:36:29.217Z,1.29
2022-09-24T10:37:31.199Z,0.48
2022-09-24T10:38:33.177Z,0.36
2022-09-24T10:39:35.018Z,0.08
2022-09-24T10:40:36.216Z,0.1
2022-09-24T10:41:37.119Z,0.21
2022-09-24T10:42:38.106Z,0
2022-09-24T10:43:39.058Z,0.16
2022-09-24T10:44:40.022Z,0
2022-09-24T10:45:41.218Z,0.35
2022-09-24T10:46:43.326Z,0.95
2022-09-24T10:47:45.817Z,1.11
2022-09-24T10:48:47.149Z,0.84
2022-09-24T10:49:48.057Z,0.87
2022-09-24T10:50:49.081Z,0.77
2022-09-24T10:51:50.026Z,0.32
2022-09-24T10:52:51.096Z,0.55
2022-09-24T10:53:52.117Z,0.18
2022-09-24T10:54:53.096Z,0.11
2022-09-24T10:55:54.105Z,0.81
2022-09-24T10:56:55.116Z,0.88
2022-09-24T10:57:56.295Z,0.64
2022-09-24T10:58:58.257Z,0.82
2022-09-24T11:00:00.202Z,1.07
2022-09-24T11:01:02.164Z,1.21
2022-09-24T11:02:04.338Z,1.63
2022-09-24T11:03:06.291Z,1.25
2022-09-24T11:04:08.248Z,1.54
2022-09-24T11:05:09.122Z,1.41
2022-09-24T11:06:10.089Z,1.11
2022-09-24T11:07:11.136Z,0.73
2022-09-24T11:08:12.357Z,1.08
2022-09-24T11:09:14.131Z,0.53
2022-09-24T11:10:15.260Z,0.98
2022-09-24T11:11:17.196Z,0.81
2022-09-24T11:12:19.098Z,0.23
2022-09-24T11:13:19.977Z,0.07
2022-09-24T11:14:21.377Z,0.14
2022-09-24T11:15:23.154Z,0.34
2022-09-24T11:16:25.055Z,0.12
2022-09-24T11:17:26.253Z,0.44
2022-09-24T11:18:28.135Z,0.38
2022-09-24T11:19:30.275Z,0.62
2022-09-24T11:20:32.097Z,0.29
2022-09-24T11:21:33.086Z,0.15
2022-09-24T11:22:34.058Z,0.88
2022-09-24T11:23:35.117Z,0.38
2022-09-24T11:24:36.317Z,0.33
2022-09-24T11:25:38.213Z,0.06
2022-09-24T11:26:39.146Z,0.46
2022-09-24T11:27:40.215Z,0.47
2022-09-24T11:28:42.116Z,0.33
2022-09-24T11:29:43.085Z,0.43
2022-09-24T11:30:44.237Z,0.52
2022-09-24T11:31:45.156Z,0.69
2022-09-24T11:32:46.157Z,0.52
2022-09-24T11:33:47.131Z,0.92
2022-09-24T11:34:48.186Z,0.85
2022-09-24T11:35:49.176Z,1
2022-09-24T11:36:50.126Z,0.66
2022-09-24T11:37:51.079Z,0.29
2022-09-24T11:38:52.178Z,0.2
2022-09-24T11:39:53.197Z,0
2022-09-24T11:40:55.402Z,0.83
2022-09-24T11:41:57.136Z,0.5
2022-09-24T11:42:58.159Z,1.65
2022-09-24T11:44:00.178Z,1.63
2022-09-24T11:45:02.230Z,1.17
2022-09-24T11:46:04.311Z,1.09
2022-09-24T11:47:06.238Z,1.16
2022-09-24T11:48:08.256Z,0.43
2022-09-24T11:49:10.165Z,1.15
2022-09-24T11:50:11.358Z,0.72
2022-09-24T11:51:12.178Z,0.56
2022-09-24T11:52:13.135Z,0.38
2022-09-24T11:53:14.161Z,0.19
2022-09-24T11:54:15.215Z,0.15
2022-09-24T11:55:17.337Z,0.42
2022-09-24T11:56:19.184Z,0
2022-09-24T11:57:20.239Z,0
2022-09-24T11:58:22.130Z,0
2022-09-24T11:59:23.298Z,0.16
2022-09-24T12:00:25.219Z,0
2022-09-24T12:01:27.316Z,0
2022-09-24T12:02:29.253Z,0.19
2022-09-24T12:03:31.206Z,0.2
2022-09-24T12:04:32.096Z,0.34
2022-09-24T12:05:33.130Z,0.33
2022-09-24T12:06:34.077Z,0.65
2022-09-24T12:07:35.157Z,0.3
2022-09-24T12:08:36.128Z,0.32
2022-09-24T12:09:37.176Z,0.24
2022-09-24T12:10:38.157Z,0.1
2022-09-24T12:11:39.203Z,0.85
2022-09-24T12:12:40.208Z,0.88
2022-09-24T12:13:42.298Z,0.74
2022-09-24T12:14:44.144Z,0.93
2022-09-24T12:15:45.329Z,1.33
2022-09-24T12:16:47.117Z,0.23
2022-09-24T12:17:48.122Z,0.27
2022-09-24T12:18:49.088Z,0.34
2022-09-24T12:19:50.137Z,0.94
2022-09-24T12:20:51.228Z,0.46
2022-09-24T12:21:52.058Z,0.35
2022-09-24T12:22:53.157Z,0.37
2022-09-24T12:24:02.156Z,0.56
2022-09-24T12:24:55.756Z,0.31
2022-09-24T12:25:57.298Z,0.19
2022-09-24T12:26:59.298Z,0.15
2022-09-24T12:28:01.341Z,0.2
2022-09-24T12:29:03.285Z,0.05
2022-09-24T12:30:05.318Z,0
2022-09-24T12:31:11.348Z,0
2022-09-24T12:32:09.241Z,0
2022-09-24T12:33:11.217Z,0.56
2022-09-24T12:34:12.171Z,0.44
2022-09-24T12:35:13.265Z,0.65
2022-09-24T12:36:15.207Z,0.05
2022-09-24T12:37:16.281Z,0.07
2022-09-24T12:38:18.157Z,0.16
2022-09-24T12:39:19.189Z,0.3
2022-09-24T12:40:20.251Z,0.81
2022-09-24T12:41:21.218Z,0.76
2022-09-24T12:42:22.180Z,0.65
2022-09-24T12:43:23.166Z,0
2022-09-24T12:44:24.258Z,0
2022-09-24T12:45:26.296Z,0.3
2022-09-24T12:46:28.361Z,0.07
2022-09-24T12:47:30.241Z,0
2022-09-24T12:48:32.366Z,0.13
2022-09-24T12:49:34.357Z,0
2022-09-24T12:50:36.341Z,0.1
2022-09-24T12:51:38.209Z,0
2022-09-24T12:52:39.237Z,0
2022-09-24T12:53:41.247Z,0
2022-09-24T12:54:43.181Z,0
2022-09-24T12:55:44.296Z,0
2022-09-24T12:56:46.278Z,0
2022-09-24T12:57:48.081Z,0.13
2022-09-24T12:58:49.077Z,0
2022-09-24T12:59:50.136Z,0
2022-09-24T13:00:51.157Z,0.1
2022-09-24T13:01:52.380Z,0.76
2022-09-24T13:02:53.403Z,1.43
2022-09-24T13:03:55.178Z,1.2
2022-09-24T13:04:56.105Z,0.87
2022-09-24T13:05:57.237Z,0.86
2022-09-24T13:06:58.437Z,0.55
2022-09-24T13:07:59.121Z,0.42
2022-09-24T13:09:00.257Z,0.67
2022-09-24T13:10:02.216Z,0.51
2022-09-24T13:11:03.181Z,0.07
2022-09-24T13:12:04.297Z,0.27
2022-09-24T13:13:05.136Z,0.09
2022-09-24T13:14:06.177Z,0.31
2022-09-24T13:15:07.223Z,0.77
2022-09-24T13:16:09.199Z,0.68
2022-09-24T13:17:10.162Z,1.03
2022-09-24T13:18:11.332Z,0.46
2022-09-24T13:19:13.296Z,0.53
2022-09-24T13:20:15.957Z,0
2022-09-24T13:21:17.276Z,0
2022-09-24T13:22:19.225Z,0
2022-09-24T13:23:20.443Z,1.1
2022-09-24T13:24:22.366Z,0.39
2022-09-24T13:25:24.260Z,0.59
2022-09-24T13:26:25.120Z,0.47
2022-09-24T13:27:26.158Z,0.37
2022-09-24T13:28:35.212Z,0.41
2022-09-24T13:29:28.158Z,0.16
2022-09-24T13:30:29.198Z,0.4
2022-09-24T13:31:30.318Z,0.26
2022-09-24T13:32:32.296Z,0.41
2022-09-24T13:33:34.317Z,0.56
2022-09-24T13:34:36.230Z,0.61
2022-09-24T13:35:37.287Z,0.87
2022-09-24T13:36:39.240Z,0.37
2022-09-24T13:37:40.441Z,0.51
2022-09-24T13:38:42.438Z,0.4
2022-09-24T13:39:44.157Z,0.32
2022-09-24T13:40:45.314Z,0.17
2022-09-24T13:41:46.237Z,0.2
2022-09-24T13:42:47.216Z,1.21
2022-09-24T13:43:48.172Z,1.28
2022-09-24T13:44:49.157Z,0.7
2022-09-24T13:45:50.328Z,0.33
2022-09-24T13:46:52.413Z,0.6
2022-09-24T13:47:54.377Z,1.05
2022-09-24T13:48:56.237Z,1.17
2022-09-24T13:49:57.178Z,0.17
2022-09-24T13:50:58.236Z,0
2022-09-24T13:51:59.125Z,0.39
2022-09-24T13:53:00.163Z,0.56
2022-09-24T13:54:01.157Z,0.71
2022-09-24T13:55:02.125Z,0.4
2022-09-24T13:56:03.153Z,0.22
2022-09-24T13:57:04.217Z,0.68
2022-09-24T13:58:05.186Z,0.95
2022-09-24T13:59:06.219Z,1.08
2022-09-24T14:00:07.278Z,0.85
2022-09-24T14:01:12.604Z,0.72
2022-09-24T14:02:09.273Z,0.26
2022-09-24T14:03:10.172Z,0.24
2022-09-24T14:04:11.356Z,0
2022-09-24T14:05:13.176Z,0
2022-09-24T14:06:14.089Z,0
2022-09-24T14:07:15.198Z,0
2022-09-24T14:08:16.294Z,0
2022-09-24T14:09:18.087Z,0.28
2022-09-24T14:10:19.157Z,0.23
2022-09-24T14:11:20.258Z,0
2022-09-24T14:12:21.137Z,0.23
2022-09-24T14:13:22.429Z,0
2022-09-24T14:14:24.319Z,0
2022-09-24T14:15:26.338Z,0.32
2022-09-24T14:16:28.420Z,0.59
2022-09-24T14:17:30.237Z,0.2
2022-09-24T14:18:31.388Z,0.21
2022-09-24T14:19:33.377Z,0
2022-09-24T14:20:35.197Z,0
2022-09-24T14:21:36.240Z,0
2022-09-24T14:22:37.317Z,0
2022-09-24T14:23:39.255Z,0
2022-09-24T14:24:40.296Z,0
2022-09-24T14:25:41.217Z,0
2022-09-24T14:26:42.174Z,0
2022-09-24T14:27:43.176Z,0.24
2022-09-24T14:28:44.226Z,0.35
2022-09-24T14:29:48.030Z,0.16
2022-09-24T14:30:46.301Z,0.22
2022-09-24T14:31:47.237Z,0.24
2022-09-24T14:32:48.237Z,0
2022-09-24T14:33:49.199Z,0